createdAt,value
2022-10-31T00:01:35.041Z,19.95
2022-10-31T00:04:02.224Z,18.58
2022-10-31T00:06:29.773Z,21.88
2022-10-31T00:09:03.291Z,20.48
2022-10-31T00:11:31.029Z,18.33
2022-10-31T00:14:01.502Z,19.55
2022-10-31T00:16:29.673Z,18.85
2022-10-31T00:19:03.433Z,17.83
2022-10-31T00:21:31.702Z,18.55
2022-10-31T00:24:00.449Z,19.60
2022-10-31T00:26:32.387Z,22.08
2022-10-31T00:29:02.862Z,21.33
2022-10-31T00:31:30.323Z,18.58
2022-10-31T00:33:58.450Z,22.15
2022-10-31T00:36:25.512Z,19.60
2022-10-31T00:38:52.583Z,18.42
2022-10-31T00:41:19.819Z,20.95
2022-10-31T00:43:49.048Z,21.67
2022-10-31T00:46:16.227Z,20.23
2022-10-31T00:48:43.722Z,21.55
2022-10-31T00:51:11.136Z,22.10
2022-10-31T00:53:38.178Z,22.52
2022-10-31T00:56:06.201Z,20.63
2022-10-31T00:58:33.254Z,20.20
2022-10-31T01:01:00.415Z,21.48
2022-10-31T01:03:33.976Z,26.88
2022-10-31T01:06:11.492Z,25.50
2022-10-31T01:08:39.356Z,22.98
2022-10-31T01:11:22.412Z,25.73
2022-10-31T01:13:53.236Z,18.73
2022-10-31T01:16:24.321Z,18.58
2022-10-31T01:18:52.742Z,16.95
2022-10-31T01:21:27.267Z,21.17
2022-10-31T01:23:56.448Z,23.90
2022-10-31T01:26:27.428Z,20.20
2022-10-31T01:28:58.972Z,15.95
2022-10-31T01:31:30.348Z,16.20
2022-10-31T01:34:02.997Z,16.10
2022-10-31T01:36:38.685Z,19.77
2022-10-31T01:39:10.432Z,23.67
2022-10-31T01:41:46.376Z,19.15
2022-10-31T01:44:18.952Z,19.50
2022-10-31T01:47:18.862Z,17.75
2022-10-31T01:50:04.230Z,17.27
2022-10-31T01:55:34.443Z,15.30
2022-10-31T01:58:09.899Z,18.48
2022-10-31T02:00:37.504Z,15.32
2022-10-31T02:03:04.680Z,15.05
2022-10-31T02:05:34.610Z,13.38
2022-10-31T02:08:12.253Z,13.40
2022-10-31T02:10:39.581Z,12.82
2022-10-31T02:13:09.290Z,14.18
2022-10-31T02:15:39.135Z,14.60
2022-10-31T02:18:08.390Z,14.50
2022-10-31T02:21:36.139Z,14.10
2022-10-31T02:24:38.410Z,16.30
2022-10-31T02:27:19.279Z,16.00
2022-10-31T02:30:06.596Z,12.52
2022-10-31T02:33:03.340Z,14.05
2022-10-31T02:35:58.827Z,12.43
2022-10-31T02:39:10.236Z,15.20
2022-10-31T02:42:00.100Z,14.68
2022-10-31T02:44:51.227Z,15.68
2022-10-31T02:47:30.297Z,15.65
2022-10-31T02:50:19.544Z,15.77
2022-10-31T02:52:52.458Z,16.58
2022-10-31T02:55:28.761Z,15.02
2022-10-31T02:58:12.335Z,15.20
2022-10-31T03:00:56.597Z,17.30
2022-10-31T03:03:44.131Z,15.23
2022-10-31T03:06:30.841Z,15.35
2022-10-31T03:09:20.459Z,16.42
2022-10-31T03:12:04.076Z,17.27
2022-10-31T03:14:52.893Z,19.23
2022-10-31T03:18:02.390Z,17.33
2022-10-31T03:21:12.585Z,16.17
2022-10-31T03:23:45.265Z,16.73
2022-10-31T03:26:15.034Z,16.55
2022-10-31T03:28:55.995Z,15.52
2022-10-31T03:31:35.764Z,16.20
2022-10-31T03:34:05.671Z,24.52
2022-10-31T03:36:35.603Z,12.75
2022-10-31T03:39:06.883Z,12.73
2022-10-31T03:41:39.538Z,14.00
2022-10-31T03:44:15.815Z,14.75
2022-10-31T03:46:43.909Z,13.18
2022-10-31T03:49:12.659Z,14.95
2022-10-31T03:52:12.412Z,16.25
2022-10-31T03:54:54.148Z,17.80
2022-10-31T03:57:47.114Z,14.18
2022-10-31T04:00:17.242Z,14.27
2022-10-31T04:02:59.027Z,13.48
2022-10-31T04:05:26.438Z,19.95
2022-10-31T04:07:59.487Z,14.75
2022-10-31T04:10:32.883Z,14.57
2022-10-31T04:13:11.274Z,15.98
2022-10-31T04:15:39.453Z,15.70
2022-10-31T04:18:07.493Z,16.25
2022-10-31T04:20:40.446Z,15.13
2022-10-31T04:23:23.648Z,16.80
2022-10-31T04:25:50.712Z,14.10
2022-10-31T04:30:44.990Z,27.38
2022-10-31T04:33:14.341Z,17.02
2022-10-31T04:35:41.900Z,15.50
2022-10-31T04:38:08.975Z,14.65
2022-10-31T04:40:36.151Z,14.85
2022-10-31T04:43:03.891Z,14.57
2022-10-31T04:45:31.195Z,13.68
2022-10-31T04:47:58.646Z,15.43
2022-10-31T04:50:25.998Z,15.30
2022-10-31T04:52:53.062Z,16.58
2022-10-31T04:55:20.203Z,18.50
2022-10-31T04:57:50.278Z,17.40
2022-10-31T05:00:20.842Z,15.38
2022-10-31T05:02:59.654Z,16.05
2022-10-31T05:05:31.961Z,15.52
2022-10-31T05:07:59.119Z,14.45
2022-10-31T05:10:30.568Z,19.52
2022-10-31T05:13:01.305Z,16.67
2022-10-31T05:15:30.358Z,16.60
2022-10-31T05:17:58.425Z,16.60
2022-10-31T05:20:29.359Z,19.90
2022-10-31T05:22:58.352Z,18.92
2022-10-31T05:25:28.451Z,17.85
2022-10-31T05:27:57.625Z,17.88
2022-10-31T05:30:29.953Z,17.67
2022-10-31T05:32:57.895Z,17.08
2022-10-31T05:35:31.887Z,19.90
2022-10-31T05:38:00.044Z,21.75
2022-10-31T05:40:28.664Z,25.10
2022-10-31T05:42:58.198Z,19.92
2022-10-31T05:45:25.979Z,23.23
2022-10-31T05:48:01.994Z,20.13
2022-10-31T05:50:32.067Z,20.25
2022-10-31T05:53:05.923Z,23.15
2022-10-31T05:55:33.714Z,20.63
2022-10-31T05:58:01.684Z,17.80
2022-10-31T06:00:30.028Z,19.80
2022-10-31T06:05:38.719Z,18.75
2022-10-31T06:08:06.301Z,17.95
2022-10-31T06:10:33.378Z,17.75
2022-10-31T06:13:00.565Z,18.48
2022-10-31T06:15:27.658Z,21.35
2022-10-31T06:18:03.915Z,19.55
2022-10-31T06:20:34.214Z,16.27
2022-10-31T06:23:02.232Z,17.38
2022-10-31T06:25:29.988Z,14.98
2022-10-31T06:27:57.880Z,16.98
2022-10-31T06:30:25.502Z,15.60
2022-10-31T06:32:52.710Z,14.98
2022-10-31T06:35:22.753Z,16.65
2022-10-31T06:37:56.591Z,19.02
2022-10-31T06:40:24.437Z,19.95
2022-10-31T06:43:03.686Z,17.38
2022-10-31T06:45:30.784Z,18.58
2022-10-31T06:50:46.102Z,20.30
2022-10-31T06:53:15.222Z,17.02
2022-10-31T06:55:43.063Z,19.02
2022-10-31T06:58:11.848Z,19.58
2022-10-31T07:00:39.287Z,20.52
2022-10-31T07:03:12.595Z,19.20
2022-10-31T07:05:40.437Z,21.77
2022-10-31T07:08:11.665Z,19.75
2022-10-31T07:10:41.222Z,21.55
2022-10-31T07:13:15.134Z,24.55
2022-10-31T07:15:44.698Z,31.38
2022-10-31T07:18:13.563Z,33.67
2022-10-31T07:20:41.296Z,42.00
2022-10-31T07:23:12.200Z,42.38
2022-10-31T07:25:41.160Z,39.60
2022-10-31T07:28:08.986Z,46.97
2022-10-31T07:30:36.286Z,43.80
2022-10-31T07:33:06.146Z,35.03
2022-10-31T07:35:35.875Z,40.75
2022-10-31T07:38:14.189Z,40.28
2022-10-31T07:40:44.844Z,39.90
2022-10-31T07:43:14.434Z,37.67
2022-10-31T07:45:45.708Z,37.28
2022-10-31T07:48:12.735Z,42.33
2022-10-31T07:50:40.335Z,29.55
2022-10-31T07:53:15.435Z,25.02
2022-10-31T07:55:43.024Z,33.75
2022-10-31T07:58:13.895Z,25.52
2022-10-31T08:00:43.876Z,26.17
2022-10-31T08:03:14.468Z,24.58
2022-10-31T08:05:42.342Z,33.25
2022-10-31T08:08:09.995Z,29.73
2022-10-31T08:10:37.805Z,32.13
2022-10-31T08:13:13.800Z,26.83
2022-10-31T08:15:42.868Z,28.52
2022-10-31T08:18:16.721Z,28.75
2022-10-31T08:20:44.703Z,25.95
2022-10-31T08:23:13.789Z,32.85
2022-10-31T08:25:42.873Z,34.47
2022-10-31T08:28:12.697Z,31.05
2022-10-31T08:30:41.048Z,33.75
2022-10-31T08:33:16.068Z,38.70
2022-10-31T08:35:43.306Z,30.02
2022-10-31T08:38:12.820Z,29.60
2022-10-31T08:40:43.063Z,29.45
2022-10-31T08:43:18.126Z,27.85
2022-10-31T08:45:50.381Z,31.25
2022-10-31T08:50:46.728Z,31.38
2022-10-31T08:53:20.029Z,30.63
2022-10-31T08:55:48.207Z,28.10
2022-10-31T08:58:19.094Z,26.25
2022-10-31T09:00:50.749Z,28.02
2022-10-31T09:03:25.062Z,20.75
2022-10-31T09:05:56.720Z,20.52
2022-10-31T09:08:24.471Z,22.40
2022-10-31T09:10:52.022Z,20.77
2022-10-31T09:13:28.120Z,20.75
2022-10-31T09:15:57.451Z,23.38
2022-10-31T09:18:25.961Z,23.88
2022-10-31T09:20:52.979Z,24.63
2022-10-31T09:23:23.800Z,25.00
2022-10-31T09:25:53.124Z,23.40
2022-10-31T09:28:24.259Z,20.27
2022-10-31T09:30:53.724Z,24.90
2022-10-31T09:33:21.925Z,23.98
2022-10-31T09:35:49.198Z,21.92
2022-10-31T09:38:21.880Z,25.60
2022-10-31T09:40:57.885Z,27.27
2022-10-31T09:43:44.877Z,27.15
2022-10-31T09:46:18.000Z,23.58
2022-10-31T09:49:00.528Z,25.65
2022-10-31T09:51:53.145Z,25.77
2022-10-31T09:54:33.399Z,24.27
2022-10-31T09:57:01.834Z,23.65
2022-10-31T09:59:35.848Z,26.33
2022-10-31T10:02:25.948Z,25.67
2022-10-31T10:04:54.842Z,29.42
2022-10-31T10:08:11.947Z,25.80
2022-10-31T10:11:06.984Z,26.75
2022-10-31T10:14:19.106Z,26.77
2022-10-31T10:17:20.120Z,28.77
2022-10-31T10:20:15.005Z,28.23
2022-10-31T10:23:17.275Z,29.75
2022-10-31T10:25:50.850Z,27.92
2022-10-31T10:28:42.733Z,24.67
2022-10-31T10:31:41.469Z,33.88
2022-10-31T10:34:21.958Z,29.17
2022-10-31T10:37:01.400Z,29.45
2022-10-31T10:39:44.767Z,31.63
2022-10-31T10:42:50.790Z,28.58
2022-10-31T10:45:39.176Z,29.65
2022-10-31T10:48:39.768Z,28.60
2022-10-31T10:51:25.704Z,29.67
2022-10-31T10:54:33.587Z,27.42
2022-10-31T10:57:30.114Z,29.08
2022-10-31T10:59:59.786Z,29.10
2022-10-31T11:02:32.490Z,29.67
2022-10-31T11:05:02.320Z,27.02
2022-10-31T11:07:40.839Z,29.55
2022-10-31T11:10:17.045Z,32.88
2022-10-31T11:12:59.611Z,33.75
2022-10-31T11:15:28.591Z,30.08
2022-10-31T11:17:57.310Z,29.70
2022-10-31T11:20:35.783Z,29.92
2022-10-31T11:23:19.388Z,31.02
2022-10-31T11:25:58.376Z,30.70
2022-10-31T11:28:27.829Z,30.23
2022-10-31T11:31:14.538Z,37.17
2022-10-31T11:33:54.281Z,35.90
2022-10-31T11:36:30.354Z,33.55
2022-10-31T11:38:59.854Z,39.65
2022-10-31T11:41:39.566Z,34.65
2022-10-31T11:44:17.698Z,33.65
2022-10-31T11:46:59.807Z,32.97
2022-10-31T11:49:44.028Z,31.67
2022-10-31T11:52:29.599Z,27.50
2022-10-31T11:55:37.399Z,33.47
2022-10-31T11:58:20.468Z,33.35
2022-10-31T12:00:52.979Z,33.88
2022-10-31T12:03:55.993Z,31.75
2022-10-31T12:06:41.166Z,37.78
2022-10-31T12:09:35.054Z,36.00
2022-10-31T12:12:23.653Z,41.78
2022-10-31T12:15:24.673Z,39.72
2022-10-31T12:18:25.932Z,34.38
2022-10-31T12:21:47.116Z,37.05
2022-10-31T12:25:09.012Z,34.83
2022-10-31T12:27:41.653Z,35.53
2022-10-31T12:30:20.202Z,38.00
2022-10-31T12:33:21.321Z,41.42
2022-10-31T12:35:56.955Z,39.28
2022-10-31T12:38:44.953Z,39.10
2022-10-31T12:41:52.154Z,43.72
2022-10-31T12:44:58.096Z,39.10
2022-10-31T12:48:08.178Z,42.85
2022-10-31T12:51:09.930Z,37.97
2022-10-31T12:54:16.600Z,39.95
2022-10-31T12:56:52.003Z,40.25
2022-10-31T12:59:44.206Z,43.00
2022-10-31T13:02:58.870Z,42.90
2022-10-31T13:05:38.777Z,38.70
2022-10-31T13:08:19.010Z,40.97
2022-10-31T13:11:31.810Z,42.33
2022-10-31T13:14:07.670Z,40.33
2022-10-31T13:16:48.748Z,39.35
2022-10-31T13:19:45.953Z,39.50
2022-10-31T13:22:30.491Z,40.17
2022-10-31T13:25:14.873Z,43.35
2022-10-31T13:28:10.285Z,42.60
2022-10-31T13:30:43.097Z,41.08
2022-10-31T13:33:19.994Z,41.05
2022-10-31T13:36:21.029Z,39.75
2022-10-31T13:39:06.038Z,41.47
2022-10-31T13:41:43.870Z,47.60
2022-10-31T13:44:21.669Z,41.33
2022-10-31T13:46:49.075Z,44.92
2022-10-31T13:49:31.403Z,42.22
2022-10-31T13:54:47.823Z,42.22
2022-10-31T13:57:23.405Z,42.30
2022-10-31T13:59:55.963Z,227.45
2022-10-31T14:02:35.370Z,82.57
2022-10-31T14:05:20.873Z,54.15
2022-10-31T14:07:51.080Z,48.45
2022-10-31T14:10:34.555Z,40.50
2022-10-31T14:13:32.538Z,46.85
2022-10-31T14:16:20.061Z,48.45
2022-10-31T14:18:58.370Z,44.22
2022-10-31T14:21:25.359Z,47.92
2022-10-31T14:23:55.077Z,42.75
2022-10-31T14:26:28.383Z,50.58
2022-10-31T14:29:19.273Z,45.63
2022-10-31T14:32:26.800Z,41.03
2022-10-31T14:34:56.658Z,47.25
2022-10-31T14:38:13.530Z,45.38
2022-10-31T14:41:05.308Z,45.28
2022-10-31T14:44:03.729Z,47.17
2022-10-31T14:47:00.704Z,48.55
2022-10-31T14:49:41.793Z,44.92
2022-10-31T14:52:14.702Z,45.25
2022-10-31T14:54:51.434Z,52.53
2022-10-31T14:57:30.600Z,45.15
2022-10-31T15:00:05.295Z,42.60
2022-10-31T15:03:16.942Z,40.70
2022-10-31T15:05:55.056Z,37.63
2022-10-31T15:08:51.747Z,39.67
2022-10-31T15:11:27.815Z,38.42
2022-10-31T15:13:58.825Z,32.80
2022-10-31T15:16:35.750Z,35.88
2022-10-31T15:19:11.247Z,35.85
2022-10-31T15:21:44.574Z,35.42
2022-10-31T15:24:19.616Z,33.83
2022-10-31T15:26:53.338Z,33.65
2022-10-31T15:29:24.501Z,33.15
2022-10-31T15:32:01.431Z,34.40
2022-10-31T15:34:40.883Z,34.90
2022-10-31T15:37:17.160Z,34.85
2022-10-31T15:39:45.979Z,31.65
2022-10-31T15:42:40.377Z,33.38
2022-10-31T15:45:22.547Z,32.88
2022-10-31T15:48:04.002Z,31.30
2022-10-31T15:50:41.414Z,30.85
2022-10-31T15:53:20.641Z,30.70
2022-10-31T15:56:00.384Z,33.38
2022-10-31T15:58:29.734Z,37.28
2022-10-31T16:01:04.100Z,34.95
2022-10-31T16:03:33.965Z,42.60
2022-10-31T16:06:04.904Z,44.63
2022-10-31T16:08:32.497Z,44.38
2022-10-31T16:11:39.290Z,57.67
2022-10-31T16:14:28.059Z,55.13
2022-10-31T16:16:59.059Z,55.92
2022-10-31T16:19:33.676Z,52.53
2022-10-31T16:22:14.758Z,43.20
2022-10-31T16:24:52.546Z,51.40
2022-10-31T16:27:33.592Z,47.47
2022-10-31T16:30:24.969Z,46.38
2022-10-31T16:33:02.313Z,50.20
2022-10-31T16:35:39.495Z,41.67
2022-10-31T16:38:07.059Z,40.47
2022-10-31T16:40:35.309Z,46.35
2022-10-31T16:43:02.961Z,40.03
2022-10-31T16:45:32.994Z,41.85
2022-10-31T16:48:12.250Z,38.85
2022-10-31T16:50:44.320Z,40.63
2022-10-31T16:53:14.494Z,40.15
2022-10-31T16:55:57.774Z,40.35
2022-10-31T16:58:29.249Z,46.58
2022-10-31T17:00:57.427Z,42.78
2022-10-31T17:03:24.613Z,44.67
2022-10-31T17:05:51.855Z,45.08
2022-10-31T17:08:19.002Z,41.92
2022-10-31T17:10:46.830Z,43.03
2022-10-31T17:13:22.671Z,46.53
2022-10-31T17:15:54.943Z,45.92
2022-10-31T17:21:00.478Z,45.75
2022-10-31T17:23:28.887Z,41.63
2022-10-31T17:25:56.822Z,44.47
2022-10-31T17:28:25.120Z,43.75
2022-10-31T17:30:54.037Z,42.40
2022-10-31T17:33:21.884Z,43.20
2022-10-31T17:35:51.990Z,44.70
2022-10-31T17:38:19.125Z,43.38
2022-10-31T17:43:18.908Z,44.58
2022-10-31T17:45:46.102Z,41.30
2022-10-31T17:48:21.617Z,43.28
2022-10-31T17:50:48.667Z,36.40
2022-10-31T17:53:15.714Z,40.08
2022-10-31T17:55:42.767Z,43.42
2022-10-31T17:58:12.931Z,46.80
2022-10-31T18:00:45.959Z,42.25
2022-10-31T18:03:15.950Z,44.28
2022-10-31T18:05:56.458Z,45.58
2022-10-31T18:08:32.724Z,48.90
2022-10-31T18:11:00.759Z,43.55
2022-10-31T18:13:28.601Z,42.47
2022-10-31T18:15:55.847Z,41.13
2022-10-31T18:18:23.002Z,47.75
2022-10-31T18:20:50.062Z,44.75
2022-10-31T18:23:17.197Z,43.58
2022-10-31T18:25:44.559Z,45.35
2022-10-31T18:28:11.765Z,45.78
2022-10-31T18:30:42.443Z,45.40
2022-10-31T18:33:12.184Z,45.97
2022-10-31T18:35:40.417Z,42.30
2022-10-31T18:38:08.029Z,45.90
2022-10-31T18:40:36.312Z,49.05
2022-10-31T18:43:06.236Z,51.83
2022-10-31T18:45:47.220Z,49.72
2022-10-31T18:48:17.325Z,44.40
2022-10-31T18:50:44.675Z,45.92
2022-10-31T18:53:11.761Z,48.90
2022-10-31T18:55:47.549Z,47.90
2022-10-31T18:58:17.870Z,46.97
2022-10-31T19:00:46.061Z,46.08
2022-10-31T19:03:14.329Z,48.65
2022-10-31T19:05:41.680Z,49.10
2022-10-31T19:08:08.793Z,47.17
2022-10-31T19:10:38.829Z,51.33
2022-10-31T19:13:06.438Z,50.83
2022-10-31T19:15:35.715Z,49.45
2022-10-31T19:18:03.588Z,57.05
2022-10-31T19:20:31.684Z,44.33
2022-10-31T19:22:59.197Z,49.28
2022-10-31T19:25:26.521Z,48.28
2022-10-31T19:27:53.616Z,43.22
2022-10-31T19:30:23.451Z,43.67
2022-10-31T19:32:55.974Z,42.22
2022-10-31T19:35:23.116Z,43.85
2022-10-31T19:37:50.203Z,44.90
2022-10-31T19:40:19.880Z,41.85
2022-10-31T19:42:47.857Z,42.85
2022-10-31T19:45:15.078Z,45.13
2022-10-31T19:47:42.566Z,48.10
2022-10-31T19:50:10.046Z,44.80
2022-10-31T19:52:37.179Z,53.97
2022-10-31T19:55:04.680Z,55.90
2022-10-31T19:58:00.405Z,57.70
2022-10-31T20:00:22.518Z,56.40
2022-10-31T20:02:49.691Z,54.90
2022-10-31T20:05:19.292Z,52.55
2022-10-31T20:07:46.475Z,56.35
2022-10-31T20:10:13.651Z,53.53
2022-10-31T20:12:40.918Z,58.95
2022-10-31T20:15:10.586Z,68.60
2022-10-31T20:17:37.645Z,69.05
2022-10-31T20:20:08.868Z,66.90
2022-10-31T20:22:36.902Z,65.77
2022-10-31T20:25:05.254Z,66.07
2022-10-31T20:27:32.758Z,62.25
2022-10-31T20:30:00.258Z,59.58
2022-10-31T20:32:27.319Z,62.75
2022-10-31T20:34:54.475Z,68.80
2022-10-31T20:37:21.550Z,64.85
2022-10-31T20:39:50.391Z,73.45
2022-10-31T20:42:22.108Z,71.13
2022-10-31T20:44:49.194Z,78.07
2022-10-31T20:47:18.494Z,63.72
2022-10-31T20:49:47.613Z,80.03
2022-10-31T20:52:14.700Z,88.57
2022-10-31T20:54:41.964Z,81.90
2022-10-31T20:57:09.041Z,86.72
2022-10-31T20:59:37.653Z,88.35
2022-10-31T21:02:04.877Z,80.13
2022-10-31T21:04:34.389Z,69.30
2022-10-31T21:07:01.473Z,75.57
2022-10-31T21:09:28.600Z,78.25
2022-10-31T21:11:55.769Z,76.93
2022-10-31T21:14:22.883Z,79.35
2022-10-31T21:16:52.462Z,78.72
2022-10-31T21:19:21.883Z,70.53
2022-10-31T21:21:54.143Z,71.68
2022-10-31T21:24:22.034Z,75.50
2022-10-31T21:26:52.015Z,78.68
2022-10-31T21:29:20.338Z,72.90
2022-10-31T21:31:48.676Z,71.43
2022-10-31T21:34:16.460Z,68.72
2022-10-31T21:36:43.601Z,71.15
2022-10-31T21:39:10.784Z,73.85
2022-10-31T21:41:38.249Z,64.78
2022-10-31T21:44:05.596Z,67.47
2022-10-31T21:46:34.119Z,65.45
2022-10-31T21:49:03.607Z,86.70
2022-10-31T21:51:34.636Z,84.03
2022-10-31T21:54:20.786Z,84.73
2022-10-31T21:56:51.673Z,78.05
2022-10-31T21:59:21.249Z,75.85
2022-10-31T22:01:49.143Z,68.32
2022-10-31T22:04:16.774Z,76.47
2022-10-31T22:06:44.316Z,77.15
2022-10-31T22:09:14.930Z,72.20
2022-10-31T22:11:44.566Z,51.60
2022-10-31T22:14:14.470Z,61.70
2022-10-31T22:16:42.487Z,57.97
2022-10-31T22:19:13.197Z,57.47
2022-10-31T22:21:48.922Z,61.25
2022-10-31T22:24:17.653Z,57.55
2022-10-31T22:29:20.624Z,48.72
2022-10-31T22:31:53.550Z,42.25
2022-10-31T22:34:24.545Z,46.65
2022-10-31T22:36:51.770Z,54.22
2022-10-31T22:39:18.883Z,49.22
2022-10-31T22:41:45.975Z,52.85
2022-10-31T22:44:13.132Z,35.28
2022-10-31T22:46:40.492Z,50.05
2022-10-31T22:49:15.099Z,50.80
2022-10-31T22:51:43.933Z,48.38
2022-10-31T22:54:17.306Z,48.25
2022-10-31T22:56:45.328Z,69.10
2022-10-31T22:59:15.662Z,54.63
2022-10-31T23:01:45.808Z,48.75
2022-10-31T23:04:15.720Z,38.58
2022-10-31T23:06:43.459Z,45.40
2022-10-31T23:09:15.876Z,44.63
2022-10-31T23:11:43.388Z,37.85
2022-10-31T23:14:16.470Z,33.47
2022-10-31T23:16:56.278Z,35.50
2022-10-31T23:19:24.569Z,39.08
2022-10-31T23:21:55.306Z,30.83
2022-10-31T23:24:36.787Z,26.10
2022-10-31T23:27:11.409Z,27.45
2022-10-31T23:29:53.091Z,27.20
2022-10-31T23:32:29.054Z,28.00
2022-10-31T23:35:04.701Z,26.75
2022-10-31T23:37:34.739Z,29.25
2022-10-31T23:40:02.047Z,33.13
2022-10-31T23:42:32.399Z,27.77
2022-10-31T23:44:59.468Z,29.08
2022-10-31T23:47:28.856Z,23.35
2022-10-31T23:49:56.037Z,26.27
2022-10-31T23:52:23.146Z,25.13
2022-10-31T23:54:50.304Z,24.02
2022-10-31T23:57:17.795Z,20.05
2022-10-31T23:59:45.159Z,20.85
